Time,TemperatureF,DewpointF,PressureIn,WindDirection,WindDirectionDegrees,WindSpeedMPH,WindSpeedGustMPH,Humidity,HourlyPrecipIn,Conditions,Clouds,dailyrainin,SoftwareType,DateUTC
2013-03-08 00:00:00,35.0,15.8,29.93,SW,223,0.0,0.0,45,0.00,,,0.00,Wunderground v.1.15,2013-03-08 07:00:00,
2013-03-08 00:30:00,35.6,14.7,29.92,SW,223,0.0,0.0,42,0.00,,,0.00,Wunderground v.1.15,2013-03-08 07:30:00,
2013-03-08 00:59:00,35.6,15.8,29.92,SW,223,0.0,0.0,44,0.00,,,0.00,Wunderground v.1.15,2013-03-08 07:59:00,
2013-03-08 01:30:00,33.2,15.6,29.92,SW,223,1.0,1.0,48,0.00,,,0.00,Wunderground v.1.15,2013-03-08 08:30:00,
2013-03-08 02:00:00,34.1,15.5,29.93,SW,223,0.0,0.0,46,0.00,,,0.00,Wunderground v.1.15,2013-03-08 09:00:00,
2013-03-08 02:30:00,35.2,17.0,29.91,SW,223,0.0,0.0,47,0.00,,,0.00,Wunderground v.1.15,2013-03-08 09:30:00,
2013-03-08 03:29:00,32.9,17.2,29.89,SW,223,0.0,0.0,52,0.00,,,0.00,Wunderground v.1.15,2013-03-08 10:29:00,
2013-03-08 03:59:00,33.1,16.0,29.89,SW,223,1.0,1.0,49,0.00,,,0.00,Wunderground v.1.15,2013-03-08 10:59:00,
2013-03-08 04:30:00,34.4,17.2,29.88,SW,223,0.0,2.0,49,0.00,,,0.00,Wunderground v.1.15,2013-03-08 11:30:00,
2013-03-08 05:00:00,33.5,17.7,29.89,SW,223,1.0,1.0,52,0.00,,,0.00,Wunderground v.1.15,2013-03-08 12:00:00,
2013-03-08 05:30:00,34.6,14.9,29.89,SW,223,1.0,2.0,44,0.00,,,0.00,Wunderground v.1.15,2013-03-08 12:30:00,
2013-03-08 06:00:00,34.1,16.9,29.88,SW,223,1.0,1.0,49,0.00,,,0.00,Wunderground v.1.15,2013-03-08 13:00:00,
2013-03-08 06:30:00,34.1,17.4,29.97,SW,223,1.0,1.0,50,0.00,,,0.00,Wunderground v.1.15,2013-03-08 13:30:00,
2013-03-08 06:59:00,34.7,18.9,29.95,SW,223,0.0,0.0,52,0.00,,,0.00,Wunderground v.1.15,2013-03-08 13:59:00,
2013-03-08 07:30:00,37.9,13.3,29.95,NNW,344,2.0,2.0,36,0.00,,,0.00,Wunderground v.1.15,2013-03-08 14:30:00,
2013-03-08 08:00:00,39.9,15.1,29.91,NNW,347,1.0,1.0,36,0.00,,,0.00,Wunderground v.1.15,2013-03-08 15:00:00,
2013-03-08 08:30:00,37.8,15.0,29.93,East,93,4.0,4.0,39,0.00,,,0.00,Wunderground v.1.15,2013-03-08 15:30:00,
2013-03-08 09:00:00,32.5,26.1,29.99,SSW,203,7.0,7.0,77,0.00,,,0.00,Wunderground v.1.15,2013-03-08 16:00:00,
2013-03-08 09:30:00,34.6,26.2,30.01,SW,223,0.0,2.0,71,0.00,,,0.00,Wunderground v.1.15,2013-03-08 16:30:00,
2013-03-08 10:00:00,34.1,26.3,29.99,NE,42,2.0,2.0,73,0.00,,,0.00,Wunderground v.1.15,2013-03-08 17:00:00,
2013-03-08 10:30:00,33.4,27.0,29.99,SSE,165,1.0,1.0,77,0.00,,,0.00,Wunderground v.1.15,2013-03-08 17:30:00,
2013-03-08 11:00:00,34.0,26.9,29.98,NNE,14,3.0,3.0,75,0.00,,,0.01,Wunderground v.1.15,2013-03-08 18:00:00,
2013-03-08 11:30:00,36.2,27.7,29.94,NE,56,4.0,5.0,71,0.00,,,0.01,Wunderground v.1.15,2013-03-08 18:30:00,
2013-03-08 12:00:00,36.2,28.4,29.92,North,3,2.0,2.0,73,0.00,,,0.01,Wunderground v.1.15,2013-03-08 19:00:00,
2013-03-08 12:30:00,35.5,29.0,29.92,North,359,4.0,4.0,77,0.00,,,0.01,Wunderground v.1.15,2013-03-08 19:30:00,
2013-03-08 13:00:00,37.3,27.7,29.87,NNE,24,7.0,7.0,68,0.00,,,0.01,Wunderground v.1.15,2013-03-08 20:00:00,
2013-03-08 13:30:00,39.8,27.8,29.84,NW,319,6.0,6.0,62,0.00,,,0.01,Wunderground v.1.15,2013-03-08 20:30:00,
2013-03-08 14:00:00,39.2,28.8,29.81,SSE,152,2.0,2.0,66,0.00,,,0.01,Wunderground v.1.15,2013-03-08 21:00:00,
2013-03-08 14:30:00,37.3,28.8,29.80,NNW,333,4.0,4.0,71,0.00,,,0.01,Wunderground v.1.15,2013-03-08 21:30:00,
2013-03-08 15:00:00,39.2,28.8,29.78,East,82,6.0,6.0,66,0.00,,,0.01,Wunderground v.1.15,2013-03-08 22:00:00,
2013-03-08 15:30:00,38.3,27.6,29.78,NE,38,3.0,5.0,65,0.00,,,0.01,Wunderground v.1.15,2013-03-08 22:30:00,
2013-03-08 16:00:00,33.8,28.3,29.82,South,186,3.0,3.0,80,0.05,,,0.03,Wunderground v.1.15,2013-03-08 23:00:00,
2013-03-08 16:30:00,31.2,27.8,29.85,South,178,7.0,7.0,87,0.09,,,0.07,Wunderground v.1.15,2013-03-08 23:30:00,
2013-03-08 17:00:00,31.0,27.6,29.87,South,182,1.0,1.0,87,0.00,,,0.08,Wunderground v.1.15,2013-03-09 00:00:00,
2013-03-08 17:30:00,31.3,28.2,29.86,South,182,1.0,1.0,88,0.00,,,0.08,Wunderground v.1.15,2013-03-09 00:30:00,
2013-03-08 18:00:00,30.9,27.5,29.85,NNE,31,2.0,2.0,87,0.00,,,0.09,Wunderground v.1.15,2013-03-09 01:00:00,
2013-03-08 18:30:00,30.1,25.6,29.84,NNE,32,2.0,2.0,83,0.00,,,0.09,Wunderground v.1.15,2013-03-09 01:30:00,
2013-03-08 19:00:00,29.4,24.0,29.85,NNE,32,3.0,3.0,80,0.00,,,0.09,Wunderground v.1.15,2013-03-09 02:00:00,
2013-03-08 19:30:00,30.6,24.9,29.79,NNE,32,1.0,1.0,79,0.00,,,0.09,Wunderground v.1.15,2013-03-09 02:30:00,
2013-03-08 20:00:00,31.2,25.4,29.78,NNE,32,0.0,0.0,79,0.00,,,0.09,Wunderground v.1.15,2013-03-09 03:00:00,
2013-03-08 20:30:00,32.4,25.7,29.83,South,178,1.0,1.0,76,0.00,,,0.09,Wunderground v.1.15,2013-03-09 03:30:00,
2013-03-08 21:00:00,31.3,26.1,29.83,SSE,162,2.0,5.0,81,0.00,,,0.10,Wunderground v.1.15,2013-03-09 04:00:00,
2013-03-08 21:30:00,31.2,26.3,29.84,SSE,147,2.0,2.0,82,0.12,,,0.14,Wunderground v.1.15,2013-03-09 04:30:00,
2013-03-08 22:00:00,31.5,26.0,29.84,SSW,205,0.0,0.0,80,0.00,,,0.16,Wunderground v.1.15,2013-03-09 05:00:00,
2013-03-08 22:30:00,32.1,26.0,29.83,SSW,205,0.0,2.0,78,0.00,,,0.16,Wunderground v.1.15,2013-03-09 05:30:00,
2013-03-08 23:00:00,31.6,25.5,29.81,NNE,31,0.0,0.0,78,0.00,,,0.16,Wunderground v.1.15,2013-03-09 06:00:00,
2013-03-08 23:30:00,31.5,26.0,29.80,NNE,31,0.0,2.0,80,0.00,,,0.01,Wunderground v.1.15,2013-03-09 06:30:00,